Time;durP1;ratioP1;P1;durP2;ratioP2;P2;SDS_P1;SDS_P2;PMS_P1;PMS_P2;Temp;Humidity;BMP_temperature;BMP_pressure;BME280_temperature;BME280_humidity;BME280_pressure;Samples;Min_cycle;Max_cycle;Signal;HPM_P1;HPM_P2
2021/10/06 00:01:16;;;;;;;2.27;0.90;;;12.80;99.90;;;;;;5030075;28;20884;-58
2021/10/06 00:03:44;;;;;;;0.90;0.80;;;13.00;99.90;;;;;;5025442;28;20508;-57
2021/10/06 00:06:11;;;;;;;1.37;0.80;;;13.00;99.90;;;;;;5028634;28;20476;-57
2021/10/06 00:08:38;;;;;;;1.10;0.80;;;12.90;99.90;;;;;;5033784;28;20939;-58
2021/10/06 00:11:06;;;;;;;3.07;0.90;;;12.90;99.90;;;;;;5033198;28;20488;-57
2021/10/06 00:13:33;;;;;;;3.00;0.70;;;12.90;99.90;;;;;;5033440;28;20448;-58
2021/10/06 00:16:00;;;;;;;1.57;0.60;;;12.90;99.90;;;;;;5032932;28;20508;-58
2021/10/06 00:18:27;;;;;;;3.27;0.87;;;12.80;99.90;;;;;;5032973;28;20946;-58
2021/10/06 00:20:56;;;;;;;1.53;0.73;;;12.70;99.90;;;;;;5033021;28;20456;-57
2021/10/06 00:23:23;;;;;;;1.67;0.87;;;12.60;99.90;;;;;;5036286;28;21008;-57
2021/10/06 00:25:50;;;;;;;1.63;0.80;;;12.60;99.90;;;;;;5033733;28;20874;-58
2021/10/06 00:28:18;;;;;;;1.57;0.70;;;12.80;99.90;;;;;;5031822;28;20966;-57
2021/10/06 00:30:45;;;;;;;1.20;0.77;;;12.70;99.90;;;;;;5032909;28;20476;-57
2021/10/06 00:33:12;;;;;;;1.80;0.73;;;12.60;99.90;;;;;;5033134;28;20503;-58
2021/10/06 00:35:39;;;;;;;2.17;0.80;;;12.40;99.90;;;;;;5032869;28;20889;-58
2021/10/06 00:38:07;;;;;;;2.97;0.80;;;12.40;99.90;;;;;;5016811;28;20474;-58
2021/10/06 00:40:34;;;;;;;5.60;0.87;;;12.50;99.90;;;;;;5013117;28;20449;-58
2021/10/06 00:43:01;;;;;;;1.57;0.80;;;12.30;99.90;;;;;;5013206;28;20955;-58
2021/10/06 00:45:28;;;;;;;1.73;0.77;;;12.20;99.90;;;;;;5015411;28;20511;-58
2021/10/06 00:47:55;;;;;;;1.23;0.63;;;12.10;99.90;;;;;;5031857;28;21052;-58
2021/10/06 00:50:22;;;;;;;2.00;0.70;;;12.10;99.90;;;;;;5032443;28;20530;-57
2021/10/06 00:52:49;;;;;;;1.20;0.70;;;11.90;99.90;;;;;;5032799;28;20997;-58
2021/10/06 00:55:18;;;;;;;2.23;0.70;;;12.10;99.90;;;;;;5032134;28;20880;-57
2021/10/06 00:57:45;;;;;;;2.50;1.53;;;12.10;99.90;;;;;;5031853;28;21002;-58
2021/10/06 01:00:13;;;;;;;3.73;0.83;;;12.20;99.90;;;;;;5031937;28;20467;-58
2021/10/06 01:02:40;;;;;;;1.37;0.70;;;12.30;99.90;;;;;;5032387;28;20461;-57
2021/10/06 01:05:10;;;;;;;5.23;0.90;;;12.30;99.90;;;;;;5031592;28;20531;-58
2021/10/06 01:07:38;;;;;;;1.63;0.70;;;12.20;99.90;;;;;;5031791;28;20464;-58
2021/10/06 01:10:07;;;;;;;1.97;0.60;;;12.20;99.90;;;;;;5032320;28;20480;-58
2021/10/06 01:12:36;;;;;;;4.03;0.90;;;12.20;99.90;;;;;;5032066;28;20449;-57
2021/10/06 01:15:06;;;;;;;1.10;0.70;;;12.20;99.90;;;;;;5031868;28;20461;-58
2021/10/06 01:17:33;;;;;;;2.03;0.80;;;12.20;99.90;;;;;;5022447;28;20523;-58
2021/10/06 01:20:00;;;;;;;3.70;0.90;;;12.20;99.90;;;;;;5013758;28;20454;-57
2021/10/06 01:22:29;;;;;;;1.60;0.90;;;12.20;99.90;;;;;;5013217;28;20461;-58
2021/10/06 01:24:56;;;;;;;1.33;0.87;;;12.20;99.90;;;;;;5030436;28;20448;-58
2021/10/06 01:27:23;;;;;;;2.80;1.10;;;12.20;99.90;;;;;;5031829;28;20546;-58
2021/10/06 01:29:50;;;;;;;4.83;1.40;;;12.10;99.90;;;;;;5032212;28;20453;-58
2021/10/06 01:32:18;;;;;;;1.80;1.33;;;11.90;99.90;;;;;;5031713;28;20499;-58
2021/10/06 01:34:57;;;;;;;2.00;1.00;;;12.00;99.90;;;;;;5031386;28;20452;-58
2021/10/06 01:37:24;;;;;;;3.57;1.07;;;11.80;99.90;;;;;;5032000;28;20476;-58
2021/10/06 01:39:53;;;;;;;3.57;1.20;;;11.60;99.90;;;;;;5032165;28;20690;-58
2021/10/06 01:42:21;;;;;;;2.63;0.90;;;11.60;99.90;;;;;;5031835;28;20499;-58
2021/10/06 01:44:49;;;;;;;1.10;1.00;;;11.60;99.90;;;;;;5015949;28;20500;-58
2021/10/06 01:47:19;;;;;;;1.03;0.93;;;11.80;99.90;;;;;;5020090;28;20485;-58
2021/10/06 01:49:47;;;;;;;1.90;1.00;;;11.80;99.90;;;;;;5012136;28;20451;-58
2021/10/06 01:52:17;;;;;;;4.10;0.90;;;11.80;99.90;;;;;;5011923;28;20452;-58
2021/10/06 01:54:44;;;;;;;1.43;1.10;;;11.70;99.90;;;;;;5026636;28;20536;-58
2021/10/06 01:57:13;;;;;;;2.00;0.97;;;11.70;99.90;;;;;;5030962;28;20472;-58
2021/10/06 01:59:43;;;;;;;2.70;1.27;;;11.80;99.90;;;;;;5031458;28;21012;-58
2021/10/06 02:02:11;;;;;;;5.27;1.03;;;11.50;99.90;;;;;;5031808;28;20486;-58
2021/10/06 02:04:38;;;;;;;2.40;1.17;;;11.40;99.90;;;;;;5031218;28;20994;-58
2021/10/06 02:07:05;;;;;;;3.20;1.00;;;11.40;99.90;;;;;;5031301;28;20476;-58
2021/10/06 02:09:32;;;;;;;3.17;0.83;;;11.50;99.90;;;;;;5031974;28;20452;-58
2021/10/06 02:11:59;;;;;;;1.80;1.00;;;11.60;99.90;;;;;;5030562;28;20484;-58
2021/10/06 02:14:27;;;;;;;1.00;0.90;;;11.40;99.90;;;;;;5031333;28;20448;-58
2021/10/06 02:16:54;;;;;;;4.40;0.93;;;11.50;99.90;;;;;;5031685;28;20472;-58
2021/10/06 02:19:21;;;;;;;1.27;0.87;;;11.60;99.90;;;;;;5031651;28;20455;-57
2021/10/06 02:21:48;;;;;;;2.63;1.03;;;11.70;99.90;;;;;;5030685;28;20445;-58
2021/10/06 02:24:15;;;;;;;1.40;0.80;;;11.70;99.90;;;;;;5031586;28;20498;-58
2021/10/06 02:26:42;;;;;;;2.50;0.93;;;11.70;99.90;;;;;;5031374;28;21010;-58
2021/10/06 02:29:09;;;;;;;1.00;0.90;;;11.70;99.90;;;;;;5031227;28;20510;-58
2021/10/06 02:31:37;;;;;;;1.70;0.90;;;11.70;99.90;;;;;;5031182;28;20484;-58
2021/10/06 02:34:04;;;;;;;5.80;1.10;;;11.70;99.90;;;;;;5031331;28;20491;-58
2021/10/06 02:36:31;;;;;;;2.90;0.90;;;11.70;99.90;;;;;;5030799;28;20472;-58
2021/10/06 02:38:58;;;;;;;2.03;0.80;;;11.60;99.90;;;;;;5031034;28;20816;-58
2021/10/06 02:41:28;;;;;;;1.10;0.90;;;11.70;99.90;;;;;;5021312;28;20438;-58
2021/10/06 02:43:55;;;;;;;1.27;0.90;;;11.80;99.90;;;;;;5030469;28;20452;-58
2021/10/06 02:46:26;;;;;;;0.70;0.70;;;11.60;99.90;;;;;;5048728;28;20499;-57
2021/10/06 02:48:54;;;;;;;1.10;0.90;;;11.50;99.90;;;;;;5051261;28;20871;-58
2021/10/06 02:51:22;;;;;;;1.93;1.10;;;11.50;99.90;;;;;;5033519;28;20863;-57
2021/10/06 02:53:49;;;;;;;1.10;0.90;;;11.40;99.90;;;;;;5030775;28;20518;-58
2021/10/06 02:56:16;;;;;;;2.57;1.10;;;11.50;99.90;;;;;;5031209;28;20553;-58
2021/10/06 02:58:44;;;;;;;2.50;1.00;;;11.40;99.90;;;;;;5030770;28;20511;-58
2021/10/06 03:01:11;;;;;;;1.43;0.90;;;11.30;99.90;;;;;;5031403;28;20535;-58
2021/10/06 03:03:38;;;;;;;1.47;1.00;;;11.30;99.90;;;;;;5030011;28;20514;-57
2021/10/06 03:06:06;;;;;;;1.40;1.00;;;11.30;99.90;;;;;;5028368;28;20468;-58
2021/10/06 03:08:33;;;;;;;3.50;1.20;;;11.20;99.90;;;;;;5030266;28;20546;-58
2021/10/06 03:11:00;;;;;;;3.03;0.73;;;11.30;99.90;;;;;;5032704;28;20546;-57
2021/10/06 03:13:28;;;;;;;2.00;0.90;;;11.20;99.90;;;;;;5026833;28;20449;-58
2021/10/06 03:15:56;;;;;;;1.30;0.83;;;11.10;99.90;;;;;;5029482;28;20533;-57
2021/10/06 03:18:24;;;;;;;0.90;0.80;;;11.10;99.90;;;;;;5014903;28;20523;-57
2021/10/06 03:20:53;;;;;;;1.83;1.10;;;11.10;99.90;;;;;;5025402;28;20445;-58
2021/10/06 03:23:22;;;;;;;2.07;1.00;;;11.10;99.90;;;;;;5022375;28;20584;-57
2021/10/06 03:25:49;;;;;;;2.10;0.97;;;11.00;99.90;;;;;;5021876;28;20523;-57
2021/10/06 03:28:17;;;;;;;2.00;1.20;;;11.10;99.90;;;;;;5019098;28;20453;-57
2021/10/06 03:30:44;;;;;;;1.33;1.00;;;11.10;99.90;;;;;;5014405;28;20489;-58
2021/10/06 03:33:11;;;;;;;2.60;1.00;;;11.20;99.90;;;;;;5026048;28;20539;-58
2021/10/06 03:35:38;;;;;;;0.90;0.90;;;11.20;99.90;;;;;;5031140;28;20885;-58
2021/10/06 03:38:05;;;;;;;1.43;1.23;;;11.20;99.90;;;;;;5026142;28;20477;-58
2021/10/06 03:40:34;;;;;;;2.30;1.30;;;11.30;99.90;;;;;;5033430;28;20514;-58
2021/10/06 03:43:01;;;;;;;1.43;1.23;;;11.40;99.90;;;;;;5033832;28;20455;-57
2021/10/06 03:45:28;;;;;;;1.80;1.43;;;11.40;99.90;;;;;;5034264;28;20499;-58
2021/10/06 03:47:55;;;;;;;2.13;1.30;;;11.40;99.90;;;;;;5032887;28;20541;-57
2021/10/06 03:50:22;;;;;;;2.00;1.10;;;11.40;99.90;;;;;;5032660;28;20867;-58
2021/10/06 03:52:49;;;;;;;1.40;1.30;;;11.40;99.90;;;;;;5033872;28;20444;-58
2021/10/06 03:55:16;;;;;;;1.50;1.40;;;11.50;99.90;;;;;;5033953;28;22298;-57
2021/10/06 03:57:48;;;;;;;1.83;1.40;;;11.50;99.90;;;;;;5032507;28;20476;-57
2021/10/06 04:00:15;;;;;;;1.87;1.37;;;11.40;99.90;;;;;;5025358;28;20499;-58
2021/10/06 04:02:42;;;;;;;3.27;2.00;;;11.30;99.90;;;;;;5027395;28;20474;-57
2021/10/06 04:05:10;;;;;;;2.83;2.50;;;11.30;99.90;;;;;;5044995;28;20506;-58
2021/10/06 04:07:37;;;;;;;3.50;2.60;;;11.30;99.90;;;;;;5040488;28;20470;-58
2021/10/06 04:10:06;;;;;;;4.00;2.27;;;11.30;99.90;;;;;;5038956;28;20479;-58
2021/10/06 04:12:33;;;;;;;2.53;2.07;;;11.20;99.90;;;;;;5030507;28;20481;-57
2021/10/06 04:15:01;;;;;;;2.53;2.17;;;11.20;99.90;;;;;;5015066;28;20446;-57
2021/10/06 04:17:28;;;;;;;2.70;1.67;;;11.20;99.90;;;;;;5028439;28;20466;-57
2021/10/06 04:19:55;;;;;;;4.20;1.60;;;11.30;99.90;;;;;;5014764;28;20449;-57
2021/10/06 04:22:23;;;;;;;3.90;1.27;;;11.40;99.90;;;;;;5013468;28;20445;-58
2021/10/06 04:24:50;;;;;;;2.43;1.77;;;11.30;99.90;;;;;;5020682;28;20445;-58
2021/10/06 04:27:17;;;;;;;1.43;1.33;;;11.20;99.90;;;;;;5034386;28;20481;-57
2021/10/06 04:29:44;;;;;;;3.47;1.20;;;11.10;99.90;;;;;;5053416;28;20502;-58
2021/10/06 04:32:16;;;;;;;2.70;1.60;;;11.10;99.90;;;;;;5053001;28;20530;-58
2021/10/06 04:34:43;;;;;;;2.20;1.43;;;11.00;99.90;;;;;;5053375;28;20938;-57
2021/10/06 04:37:10;;;;;;;2.40;1.77;;;11.00;99.90;;;;;;5048485;28;20881;-57
2021/10/06 04:39:37;;;;;;;3.30;1.97;;;11.10;99.90;;;;;;5013565;28;20883;-58
2021/10/06 04:42:04;;;;;;;4.77;2.10;;;11.00;99.90;;;;;;5013186;28;20500;-57
2021/10/06 04:44:31;;;;;;;4.53;3.07;;;10.80;99.90;;;;;;5013230;28;20515;-57
2021/10/06 04:46:58;;;;;;;5.40;3.13;;;10.80;99.90;;;;;;5019935;28;20480;-58
2021/10/06 04:49:26;;;;;;;3.43;1.77;;;10.60;99.90;;;;;;5035502;28;20440;-58
2021/10/06 04:51:53;;;;;;;3.17;2.43;;;10.60;99.90;;;;;;5052555;28;20903;-57
2021/10/06 04:54:20;;;;;;;2.43;1.60;;;10.70;99.90;;;;;;5034811;28;20503;-57
2021/10/06 04:56:47;;;;;;;3.93;2.23;;;10.60;99.90;;;;;;5032643;28;20473;-58
2021/10/06 04:59:14;;;;;;;2.50;1.67;;;10.50;99.90;;;;;;5031164;28;20808;-57
2021/10/06 05:01:41;;;;;;;2.40;1.63;;;10.40;99.90;;;;;;5030634;28;20449;-57
2021/10/06 05:04:08;;;;;;;2.87;1.80;;;10.60;99.90;;;;;;5012942;28;20927;-57
2021/10/06 05:06:38;;;;;;;3.60;1.83;;;10.70;99.90;;;;;;5043367;28;20506;-57
2021/10/06 05:09:05;;;;;;;2.13;1.67;;;10.80;99.90;;;;;;5015917;28;20460;-57
2021/10/06 05:11:32;;;;;;;2.10;1.90;;;10.80;99.90;;;;;;5012426;28;20899;-57
2021/10/06 05:13:59;;;;;;;2.17;1.70;;;10.80;99.90;;;;;;5012705;28;20454;-57
2021/10/06 05:16:26;;;;;;;3.60;2.70;;;10.80;99.90;;;;;;5012587;28;20466;-57
2021/10/06 05:18:53;;;;;;;7.80;3.70;;;10.90;99.90;;;;;;5029815;28;20523;-58
2021/10/06 05:21:20;;;;;;;3.60;3.30;;;11.00;99.90;;;;;;5031950;28;20472;-57
2021/10/06 05:23:48;;;;;;;4.07;3.03;;;11.00;99.90;;;;;;5032239;28;20457;-58
2021/10/06 05:26:15;;;;;;;5.13;2.33;;;11.10;99.90;;;;;;5030758;28;20893;-58
2021/10/06 05:28:42;;;;;;;3.90;2.40;;;11.10;99.90;;;;;;5028950;28;20802;-58
2021/10/06 05:31:09;;;;;;;5.00;3.20;;;11.10;99.90;;;;;;5030840;28;20456;-58
2021/10/06 05:33:36;;;;;;;3.87;1.80;;;11.10;99.90;;;;;;5032034;28;20498;-58
2021/10/06 05:36:05;;;;;;;3.40;1.93;;;11.10;99.90;;;;;;5031674;28;20449;-57
2021/10/06 05:38:32;;;;;;;4.23;1.90;;;11.10;99.90;;;;;;5031521;28;20882;-57
2021/10/06 05:41:00;;;;;;;3.27;1.63;;;11.00;99.90;;;;;;5019897;28;20449;-57
2021/10/06 05:43:27;;;;;;;1.83;1.60;;;11.10;99.90;;;;;;5031836;28;20518;-58
2021/10/06 05:45:54;;;;;;;1.77;1.67;;;11.10;99.90;;;;;;5031455;28;20498;-58
2021/10/06 05:48:21;;;;;;;3.00;1.60;;;11.20;99.90;;;;;;5020836;28;20450;-58
2021/10/06 05:50:48;;;;;;;3.90;1.60;;;11.20;99.90;;;;;;5030169;28;20444;-58
2021/10/06 05:53:15;;;;;;;2.20;1.60;;;11.20;99.90;;;;;;5031133;28;20480;-58
2021/10/06 05:55:42;;;;;;;1.60;1.43;;;11.20;99.90;;;;;;5030653;28;20445;-58
2021/10/06 05:58:10;;;;;;;4.20;2.00;;;11.20;99.90;;;;;;5024543;28;21079;-58
2021/10/06 06:00:37;;;;;;;2.60;1.60;;;11.20;99.90;;;;;;5029757;28;20957;-58
2021/10/06 06:03:04;;;;;;;2.30;1.70;;;11.20;99.90;;;;;;5015100;28;20507;-57
2021/10/06 06:05:31;;;;;;;5.40;1.63;;;11.10;99.90;;;;;;5026973;28;20453;-58
2021/10/06 06:07:58;;;;;;;5.47;2.50;;;11.10;99.90;;;;;;5017222;28;20469;-58
2021/10/06 06:10:25;;;;;;;2.13;1.80;;;11.10;99.90;;;;;;5031459;28;20533;-58
2021/10/06 06:12:53;;;;;;;5.20;2.60;;;11.10;99.90;;;;;;5031391;28;20492;-58
2021/10/06 06:15:21;;;;;;;6.07;2.80;;;11.10;99.90;;;;;;5031573;28;20502;-57
2021/10/06 06:17:48;;;;;;;3.83;3.03;;;11.10;99.90;;;;;;5030373;28;20919;-58
2021/10/06 06:20:23;;;;;;;7.00;3.53;;;11.20;99.90;;;;;;5031453;28;20889;-58
2021/10/06 06:22:51;;;;;;;4.40;3.10;;;11.20;99.90;;;;;;5029975;28;20872;-57
2021/10/06 06:25:18;;;;;;;4.80;3.60;;;11.30;99.90;;;;;;5031654;28;20539;-58
2021/10/06 06:27:46;;;;;;;6.20;3.70;;;11.30;99.90;;;;;;5028509;28;20534;-57
2021/10/06 06:30:13;;;;;;;5.03;3.70;;;11.30;99.90;;;;;;5031335;28;20453;-58
2021/10/06 06:32:42;;;;;;;6.50;3.93;;;11.30;99.90;;;;;;5031270;28;20900;-58
2021/10/06 06:35:10;;;;;;;5.50;4.80;;;11.30;99.90;;;;;;5031467;28;20552;-57
2021/10/06 06:37:38;;;;;;;4.97;4.50;;;11.30;99.90;;;;;;5023032;28;20500;-57
2021/10/06 06:40:07;;;;;;;7.00;3.90;;;11.30;99.90;;;;;;5031369;28;20444;-57
2021/10/06 06:42:35;;;;;;;4.67;3.00;;;11.40;99.90;;;;;;5046752;28;21025;-57
2021/10/06 06:45:02;;;;;;;3.40;3.10;;;11.50;99.90;;;;;;5020030;28;20508;-57
2021/10/06 06:47:29;;;;;;;3.90;2.70;;;11.50;99.90;;;;;;5015429;28;20539;-57
2021/10/06 06:49:57;;;;;;;6.10;2.60;;;11.40;99.90;;;;;;5025436;28;20909;-57
2021/10/06 06:52:24;;;;;;;2.90;2.20;;;11.40;99.90;;;;;;5035024;28;20906;-57
2021/10/06 06:54:52;;;;;;;2.17;1.97;;;11.40;99.90;;;;;;5034867;28;20950;-57
2021/10/06 06:57:19;;;;;;;4.43;2.60;;;11.50;99.90;;;;;;5034705;28;20526;-57
2021/10/06 06:59:46;;;;;;;2.83;2.53;;;11.50;99.90;;;;;;5034357;28;21016;-57
2021/10/06 07:02:13;;;;;;;3.80;3.07;;;11.50;99.90;;;;;;5034460;28;20499;-57
2021/10/06 07:04:40;;;;;;;4.83;2.83;;;11.50;99.90;;;;;;5034730;28;20440;-57
2021/10/06 07:07:12;;;;;;;3.90;2.10;;;11.50;99.90;;;;;;5032091;28;20476;-57
2021/10/06 07:09:46;;;;;;;4.40;2.43;;;11.60;99.90;;;;;;5034694;28;20456;-57
2021/10/06 07:12:14;;;;;;;8.80;3.53;;;11.60;99.90;;;;;;5034468;28;21119;-57
2021/10/06 07:14:42;;;;;;;4.13;1.97;;;11.60;99.90;;;;;;5034134;28;20510;-57
2021/10/06 07:17:09;;;;;;;2.80;2.33;;;11.60;99.90;;;;;;5030780;28;20480;-57
2021/10/06 07:19:36;;;;;;;3.20;1.87;;;11.60;99.90;;;;;;5027573;28;20453;-57
2021/10/06 07:22:04;;;;;;;3.30;1.90;;;11.60;99.90;;;;;;5014739;28;20876;-57
2021/10/06 07:24:32;;;;;;;3.00;2.17;;;11.60;99.90;;;;;;5023020;28;20450;-57
2021/10/06 07:27:00;;;;;;;2.33;2.00;;;11.60;99.90;;;;;;5034274;28;20940;-57
2021/10/06 07:29:27;;;;;;;2.63;1.80;;;11.60;99.90;;;;;;5034319;28;20452;-57
2021/10/06 07:31:54;;;;;;;2.50;2.30;;;11.60;99.90;;;;;;5034249;28;20476;-58
2021/10/06 07:34:21;;;;;;;1.73;1.60;;;11.60;99.90;;;;;;5034825;28;20471;-57
2021/10/06 07:36:48;;;;;;;1.70;1.23;;;11.60;99.90;;;;;;5028303;28;20469;-57
2021/10/06 07:39:16;;;;;;;4.07;2.00;;;11.70;99.90;;;;;;5033659;28;20448;-57
2021/10/06 07:41:44;;;;;;;4.13;2.07;;;11.80;99.90;;;;;;5033682;28;20444;-57
2021/10/06 07:44:11;;;;;;;1.60;1.50;;;11.80;99.90;;;;;;5034048;28;20850;-57
2021/10/06 07:46:38;;;;;;;5.07;3.13;;;12.00;99.90;;;;;;5034044;28;21051;-57
2021/10/06 07:49:05;;;;;;;6.00;3.23;;;12.10;99.90;;;;;;5034040;28;20507;-57
2021/10/06 07:51:32;;;;;;;1.80;1.70;;;12.10;99.90;;;;;;5033855;28;20538;-57
2021/10/06 07:53:59;;;;;;;2.37;1.30;;;12.10;99.90;;;;;;5033231;28;20542;-57
2021/10/06 07:56:26;;;;;;;1.50;1.20;;;12.20;99.90;;;;;;5031950;28;20491;-57
2021/10/06 07:58:55;;;;;;;2.30;1.43;;;12.20;99.90;;;;;;5031489;28;20458;-57
2021/10/06 08:01:22;;;;;;;2.50;1.50;;;12.10;99.90;;;;;;5033982;28;20448;-57
2021/10/06 08:03:49;;;;;;;2.27;1.90;;;12.10;99.90;;;;;;5031339;28;20883;-57
2021/10/06 08:06:16;;;;;;;2.40;1.60;;;12.10;99.90;;;;;;5031873;28;20480;-57
2021/10/06 08:08:43;;;;;;;2.60;1.23;;;12.10;99.90;;;;;;5030924;28;20453;-57
2021/10/06 08:11:10;;;;;;;1.30;1.20;;;12.00;99.90;;;;;;5030754;28;20476;-57
2021/10/06 08:13:37;;;;;;;3.33;1.50;;;12.00;99.90;;;;;;5042044;28;20487;-57
2021/10/06 08:16:06;;;;;;;1.40;1.20;;;12.10;99.90;;;;;;5053690;28;20447;-57
2021/10/06 08:18:33;;;;;;;1.40;1.00;;;12.10;99.90;;;;;;5044345;28;20445;-57
2021/10/06 08:21:00;;;;;;;2.50;1.50;;;12.00;99.90;;;;;;5031738;28;20461;-57
2021/10/06 08:23:30;;;;;;;1.70;1.60;;;12.00;99.90;;;;;;5032480;28;20433;-57
2021/10/06 08:25:58;;;;;;;2.50;1.30;;;12.00;99.90;;;;;;5035630;28;20202;-57
2021/10/06 08:28:25;;;;;;;2.50;1.30;;;12.00;99.90;;;;;;5033343;28;20453;-57
2021/10/06 08:30:52;;;;;;;0.93;0.83;;;12.10;99.90;;;;;;5032682;28;20460;-57
2021/10/06 08:33:21;;;;;;;3.77;1.43;;;12.00;99.90;;;;;;5050838;28;20479;-57
2021/10/06 08:35:48;;;;;;;2.60;1.50;;;12.10;99.90;;;;;;5052800;28;20462;-57
2021/10/06 08:38:16;;;;;;;1.40;1.20;;;12.10;99.90;;;;;;5042228;28;20987;-58
2021/10/06 08:40:43;;;;;;;3.70;1.80;;;12.10;99.90;;;;;;5033899;28;20451;-58
2021/10/06 08:43:12;;;;;;;1.67;1.57;;;12.10;99.90;;;;;;5042414;28;20445;-58
2021/10/06 08:45:39;;;;;;;2.37;1.73;;;12.40;99.90;;;;;;5033052;28;20593;-58
2021/10/06 08:48:08;;;;;;;2.40;1.60;;;12.40;99.90;;;;;;5032402;28;20500;-58
2021/10/06 08:50:38;;;;;;;4.00;1.37;;;12.50;99.90;;;;;;5031554;28;20507;-58
2021/10/06 08:53:06;;;;;;;2.17;1.57;;;12.50;99.90;;;;;;5032605;28;21017;-58
2021/10/06 08:55:34;;;;;;;3.33;1.50;;;12.50;99.90;;;;;;5032556;28;20457;-58
2021/10/06 08:58:03;;;;;;;3.07;1.90;;;12.50;99.90;;;;;;5032386;28;20504;-58
2021/10/06 09:00:31;;;;;;;2.17;1.70;;;12.50;99.90;;;;;;5032136;28;20449;-58
2021/10/06 09:03:08;;;;;;;2.33;1.80;;;12.50;99.90;;;;;;5032648;28;20460;-58
2021/10/06 09:05:36;;;;;;;10.00;1.70;;;12.60;99.90;;;;;;5031719;28;20930;-58
2021/10/06 09:08:07;;;;;;;3.37;2.53;;;12.70;99.90;;;;;;5032352;28;20473;-58
2021/10/06 09:10:36;;;;;;;3.53;1.83;;;12.60;99.90;;;;;;5031824;28;20498;-58
2021/10/06 09:13:05;;;;;;;4.33;1.77;;;12.50;99.90;;;;;;5032125;28;21040;-58
2021/10/06 09:15:42;;;;;;;3.43;1.40;;;12.40;99.90;;;;;;5032343;28;20463;-58
2021/10/06 09:18:13;;;;;;;2.07;1.47;;;12.20;99.90;;;;;;5031259;28;20506;-58
2021/10/06 09:20:41;;;;;;;3.07;1.90;;;12.30;99.90;;;;;;5031401;28;20451;-58
2021/10/06 09:23:10;;;;;;;2.80;1.80;;;12.30;99.90;;;;;;5031425;28;20495;-58
2021/10/06 09:25:52;;;;;;;2.33;1.73;;;12.40;99.90;;;;;;5012565;28;20449;-58
2021/10/06 09:28:21;;;;;;;4.10;2.20;;;12.60;99.90;;;;;;5012493;28;20457;-58
2021/10/06 09:30:51;;;;;;;2.55;2.00;;;12.40;99.90;;;;;;5026148;28;20449;-58
2021/10/06 09:33:18;;;;;;;3.50;1.60;;;12.30;99.90;;;;;;5018238;28;20225;-57
2021/10/06 09:35:52;;;;;;;3.83;2.63;;;12.30;99.90;;;;;;5031877;28;20448;-58
2021/10/06 09:38:19;;;;;;;3.00;2.13;;;12.40;99.90;;;;;;5031449;28;20541;-58
2021/10/06 09:40:46;;;;;;;3.10;1.93;;;12.40;99.90;;;;;;5029503;28;20441;-58
2021/10/06 09:43:13;;;;;;;2.53;1.87;;;12.50;99.90;;;;;;5031580;28;20457;-58
2021/10/06 09:45:55;;;;;;;3.70;1.43;;;12.60;99.90;;;;;;5031805;28;20456;-59
2021/10/06 09:48:35;;;;;;;3.80;1.77;;;12.60;99.90;;;;;;5023356;28;20462;-59
2021/10/06 09:51:07;;;;;;;2.80;1.50;;;12.80;99.90;;;;;;5029364;28;20546;-59
2021/10/06 09:53:35;;;;;;;2.80;1.37;;;12.90;99.90;;;;;;5031804;28;20605;-58
2021/10/06 09:56:04;;;;;;;4.97;1.70;;;13.00;99.90;;;;;;5031576;28;20488;-58
2021/10/06 09:58:32;;;;;;;3.00;1.50;;;13.30;99.90;;;;;;5030396;28;20496;-59
2021/10/06 10:00:59;;;;;;;1.80;1.60;;;13.30;99.90;;;;;;5030714;28;20460;-58
2021/10/06 10:03:26;;;;;;;4.07;2.20;;;13.50;99.90;;;;;;5031357;28;20451;-58
2021/10/06 10:05:54;;;;;;;4.27;1.93;;;13.50;99.90;;;;;;5031668;28;20448;-59
2021/10/06 10:08:23;;;;;;;3.23;2.07;;;13.70;99.90;;;;;;5030810;28;20464;-59
2021/10/06 10:10:51;;;;;;;5.20;2.03;;;13.80;99.90;;;;;;5031156;28;20457;-59
2021/10/06 10:13:22;;;;;;;3.37;2.03;;;13.80;99.90;;;;;;5031024;28;20476;-58
2021/10/06 10:15:50;;;;;;;3.87;2.30;;;13.80;99.90;;;;;;5031463;28;20448;-58
2021/10/06 10:18:19;;;;;;;3.00;1.70;;;13.80;99.90;;;;;;5033190;28;20448;-58
2021/10/06 10:20:50;;;;;;;2.03;1.70;;;13.60;99.90;;;;;;5034868;28;20449;-58
2021/10/06 10:23:18;;;;;;;1.93;1.77;;;13.30;99.90;;;;;;5035160;28;20450;-58
2021/10/06 10:25:47;;;;;;;4.40;2.17;;;13.30;99.90;;;;;;5034534;28;20448;-59
2021/10/06 10:28:17;;;;;;;3.13;2.83;;;13.20;99.90;;;;;;5035444;28;20845;-58
2021/10/06 10:31:00;;;;;;;2.60;1.90;;;13.10;99.90;;;;;;5034467;28;20452;-58
2021/10/06 10:33:42;;;;;;;2.42;2.22;;;13.10;99.90;;;;;;5038160;28;20457;-58
2021/10/06 10:36:47;;;;;;;3.90;2.27;;;13.00;99.90;;;;;;5051941;28;20229;-57
2021/10/06 10:39:51;;;;;;;2.13;1.93;;;12.60;99.90;;;;;;5051265;28;20459;-58
2021/10/06 10:42:19;;;;;;;5.30;2.90;;;12.80;99.90;;;;;;5027193;28;20441;-58
2021/10/06 10:44:47;;;;;;;2.47;2.23;;;13.00;99.90;;;;;;5016009;28;20450;-58
2021/10/06 10:47:14;;;;;;;2.43;1.77;;;13.30;99.90;;;;;;5018234;28;20484;-59
2021/10/06 10:49:46;;;;;;;4.47;1.70;;;13.40;99.90;;;;;;5035294;28;20448;-58
2021/10/06 10:52:14;;;;;;;1.50;1.40;;;13.60;99.90;;;;;;5033820;28;20856;-57
2021/10/06 10:54:42;;;;;;;1.87;1.50;;;13.70;99.90;;;;;;5034934;28;20495;-58
2021/10/06 10:57:20;;;;;;;2.77;1.63;;;13.80;99.90;;;;;;5034471;28;20471;-59
2021/10/06 10:59:49;;;;;;;2.40;1.60;;;14.00;99.90;;;;;;5035018;28;20448;-58
2021/10/06 11:02:22;;;;;;;1.97;1.30;;;14.00;99.90;;;;;;5014944;28;20448;-58
2021/10/06 11:04:57;;;;;;;1.30;1.20;;;14.00;99.90;;;;;;5014939;28;20837;-58
2021/10/06 11:07:24;;;;;;;2.80;1.30;;;13.90;99.90;;;;;;5018359;28;20479;-58
2021/10/06 11:09:55;;;;;;;2.07;1.50;;;14.00;99.90;;;;;;5034429;28;20459;-58
2021/10/06 11:12:37;;;;;;;3.03;1.53;;;14.20;99.90;;;;;;5034172;28;20468;-58
2021/10/06 11:15:29;;;;;;;1.83;1.47;;;14.40;99.90;;;;;;5034384;28;21074;-58
2021/10/06 11:18:30;;;;;;;1.70;1.60;;;14.50;99.90;;;;;;5034170;28;20461;-58
2021/10/06 11:21:06;;;;;;;1.47;1.30;;;14.40;99.90;;;;;;5033757;28;20973;-59
2021/10/06 11:24:00;;;;;;;1.50;1.00;;;14.50;99.90;;;;;;5034348;28;20498;-59
2021/10/06 11:26:31;;;;;;;1.37;1.23;;;14.20;99.90;;;;;;5034318;28;20464;-58
2021/10/06 11:29:05;;;;;;;2.97;1.20;;;14.20;99.90;;;;;;5032987;28;20449;-59
2021/10/06 11:31:34;;;;;;;1.47;1.10;;;14.40;99.90;;;;;;5033704;28;20505;-59
2021/10/06 11:34:03;;;;;;;1.40;0.87;;;14.60;99.90;;;;;;5033992;28;21010;-58
2021/10/06 11:36:34;;;;;;;4.30;1.33;;;14.70;99.90;;;;;;5034215;28;20472;-58
2021/10/06 11:39:08;;;;;;;1.43;0.93;;;14.70;99.90;;;;;;5033826;28;20936;-59
2021/10/06 11:41:37;;;;;;;1.83;0.93;;;14.60;99.90;;;;;;5033251;28;20452;-59
2021/10/06 11:44:05;;;;;;;1.10;1.00;;;14.70;99.90;;;;;;5034160;28;20452;-58
2021/10/06 11:46:34;;;;;;;1.33;1.20;;;14.50;99.90;;;;;;5033891;28;20476;-59
2021/10/06 11:49:03;;;;;;;0.93;0.70;;;14.60;99.90;;;;;;5033453;28;20456;-59
2021/10/06 11:51:43;;;;;;;3.23;1.33;;;13.90;99.90;;;;;;5032583;28;20456;-58
2021/10/06 11:54:11;;;;;;;0.57;0.47;;;13.00;99.90;;;;;;5028067;28;20507;-58
2021/10/06 11:56:40;;;;;;;0.67;0.60;;;12.00;99.90;;;;;;5029852;28;20492;-58
2021/10/06 11:59:12;;;;;;;1.80;0.60;;;11.50;99.90;;;;;;5029885;28;20598;-59
2021/10/06 12:01:40;;;;;;;1.60;0.63;;;11.20;99.90;;;;;;5026138;28;20460;-58
2021/10/06 12:04:12;;;;;;;2.00;0.60;;;11.10;99.90;;;;;;5030354;28;21240;-58
2021/10/06 12:06:42;;;;;;;0.93;0.87;;;11.00;99.90;;;;;;5027311;28;20515;-58
2021/10/06 12:09:10;;;;;;;1.23;0.60;;;11.20;99.90;;;;;;5029385;28;20460;-58
2021/10/06 12:11:40;;;;;;;0.80;0.60;;;11.30;99.90;;;;;;5033212;28;20440;-59
2021/10/06 12:14:33;;;;;;;1.93;0.93;;;11.40;99.90;;;;;;5031860;28;20524;-59
2021/10/06 12:17:10;;;;;;;1.37;0.70;;;11.50;99.90;;;;;;5015996;28;20485;-59
2021/10/06 12:19:38;;;;;;;1.23;0.80;;;11.60;99.90;;;;;;5028776;28;20522;-58
2021/10/06 12:22:07;;;;;;;2.40;0.67;;;11.70;99.90;;;;;;5032039;28;20467;-59
2021/10/06 12:24:37;;;;;;;8.23;1.07;;;11.70;99.90;;;;;;5032110;28;20460;-59
2021/10/06 12:27:07;;;;;;;3.07;0.80;;;11.90;99.90;;;;;;5030209;28;20499;-60
2021/10/06 12:29:35;;;;;;;1.23;0.70;;;11.90;99.90;;;;;;5031625;28;20464;-59
2021/10/06 12:32:15;;;;;;;1.60;0.80;;;11.80;99.90;;;;;;5032076;28;20465;-59
2021/10/06 12:34:42;;;;;;;0.60;0.50;;;11.90;99.90;;;;;;5027146;28;20488;-58
2021/10/06 12:37:12;;;;;;;0.70;0.60;;;11.80;99.90;;;;;;5027086;28;21001;-59
2021/10/06 12:39:39;;;;;;;1.10;0.73;;;11.60;99.90;;;;;;5031893;28;20468;-58
2021/10/06 12:42:08;;;;;;;2.00;0.60;;;11.60;99.90;;;;;;5032636;28;21138;-59
2021/10/06 12:44:44;;;;;;;1.90;0.70;;;11.70;99.90;;;;;;5032266;28;20492;-59
2021/10/06 12:47:13;;;;;;;0.97;0.70;;;11.80;99.90;;;;;;5023920;28;20491;-59
2021/10/06 12:49:48;;;;;;;3.63;0.60;;;11.80;99.90;;;;;;5030800;28;20487;-58
2021/10/06 12:52:22;;;;;;;0.90;0.60;;;12.00;99.90;;;;;;5025222;28;20447;-59
2021/10/06 12:54:49;;;;;;;1.13;0.70;;;12.10;99.90;;;;;;5031421;28;20495;-58
2021/10/06 12:57:16;;;;;;;1.10;0.60;;;12.20;99.90;;;;;;5028603;28;20859;-58